Time;durP1;ratioP1;P1;durP2;ratioP2;P2;SDS_P1;SDS_P2;PMS_P1;PMS_P2;Temp;Humidity;BMP_temperature;BMP_pressure;BME280_temperature;BME280_humidity;BME280_pressure;Samples;Min_cycle;Max_cycle;Signal;HPM_P1;HPM_P2
2023/12/05 00:01:18;;;;;;;9.00;5.10;;;;;;;3.82;100.00;100675.00;5034418;28;20107;-63
2023/12/05 00:03:44;;;;;;;9.07;4.57;;;;;;;3.81;100.00;100670.69;5032588;28;20045;-65
2023/12/05 00:06:10;;;;;;;8.30;4.65;;;;;;;3.66;100.00;100674.28;5034939;28;20045;-65
2023/12/05 00:08:36;;;;;;;7.25;4.05;;;;;;;3.65;100.00;100669.97;5033847;28;20029;-66
2023/12/05 00:11:06;;;;;;;8.80;4.20;;;;;;;3.54;100.00;100661.94;5034916;28;20029;-66
2023/12/05 00:13:32;;;;;;;8.45;5.10;;;;;;;3.58;100.00;100660.81;5030821;28;20142;-63
2023/12/05 00:15:57;;;;;;;7.60;5.28;;;;;;;3.57;100.00;100658.28;5033500;28;20045;-63
2023/12/05 00:18:24;;;;;;;9.05;5.10;;;;;;;3.55;100.00;100662.78;5033869;28;20323;-65
2023/12/05 00:20:50;;;;;;;8.80;5.05;;;;;;;3.50;100.00;100678.78;5006126;28;20385;-65
2023/12/05 00:23:16;;;;;;;11.32;5.25;;;;;;;3.56;100.00;100672.31;5033729;28;20029;-63
2023/12/05 00:25:41;;;;;;;8.05;4.93;;;;;;;3.57;100.00;100669.59;5032233;28;20037;-65
2023/12/05 00:28:07;;;;;;;7.55;4.78;;;;;;;3.44;100.00;100666.91;5033778;28;20064;-66
2023/12/05 00:30:32;;;;;;;10.07;4.97;;;;;;;3.53;100.00;100666.34;5032887;28;20385;-64
2023/12/05 00:32:58;;;;;;;7.90;4.20;;;;;;;3.57;100.00;100666.97;5023493;28;20358;-63
2023/12/05 00:35:24;;;;;;;8.07;4.32;;;;;;;3.52;100.00;100682.97;5033913;28;20294;-66
2023/12/05 00:37:50;;;;;;;8.95;4.78;;;;;;;3.57;100.00;100671.38;5033752;28;20033;-66
2023/12/05 00:40:15;;;;;;;8.52;4.32;;;;;;;3.82;100.00;100682.00;5034031;28;20247;-66
2023/12/05 00:42:41;;;;;;;8.05;4.88;;;;;;;3.76;100.00;100667.53;5033672;28;20030;-64
2023/12/05 00:45:07;;;;;;;6.90;4.05;;;;;;;3.78;100.00;100672.66;5033244;28;20049;-63
2023/12/05 00:47:33;;;;;;;7.03;4.80;;;;;;;3.96;100.00;100681.97;5022911;28;20107;-64
2023/12/05 00:49:58;;;;;;;8.48;4.90;;;;;;;4.12;100.00;100672.19;5033304;28;20174;-64
2023/12/05 00:52:24;;;;;;;7.15;5.15;;;;;;;4.07;100.00;100666.41;5032410;28;20033;-64
2023/12/05 00:54:49;;;;;;;8.68;4.93;;;;;;;4.10;100.00;100665.38;5033431;28;20042;-66
2023/12/05 00:57:15;;;;;;;9.00;4.60;;;;;;;4.07;100.00;100662.94;5033685;28;20033;-66
2023/12/05 00:59:40;;;;;;;8.73;4.85;;;;;;;4.23;100.00;100662.84;5033464;28;20033;-64
2023/12/05 01:02:07;;;;;;;7.47;4.55;;;;;;;4.40;100.00;100660.81;5033658;28;20664;-64
2023/12/05 01:04:32;;;;;;;7.47;4.93;;;;;;;4.41;100.00;100657.25;5024824;28;20030;-64
2023/12/05 01:06:59;;;;;;;10.15;5.30;;;;;;;4.41;100.00;100652.00;5033013;28;20099;-64
2023/12/05 01:09:24;;;;;;;6.80;4.70;;;;;;;4.37;100.00;100639.19;5033269;28;20038;-66
2023/12/05 01:11:50;;;;;;;8.48;4.75;;;;;;;4.45;100.00;100634.28;5032244;28;20030;-66
2023/12/05 01:14:15;;;;;;;6.80;4.70;;;;;;;4.54;100.00;100635.44;5033124;28;20034;-66
2023/12/05 01:16:44;;;;;;;7.15;5.07;;;;;;;4.59;100.00;100635.97;5033465;28;20049;-64
2023/12/05 01:19:10;;;;;;;9.20;5.55;;;;;;;4.71;100.00;100635.16;5033328;28;20315;-65
2023/12/05 01:21:36;;;;;;;8.95;4.55;;;;;;;4.68;98.81;100627.50;5033497;28;20041;-64
2023/12/05 01:24:02;;;;;;;8.90;5.05;;;;;;;4.78;98.69;100633.81;5033234;28;20038;-63
2023/12/05 01:26:27;;;;;;;7.63;4.22;;;;;;;4.57;98.90;100612.47;5033156;28;20452;-66
2023/12/05 01:28:54;;;;;;;7.55;4.15;;;;;;;4.61;98.91;100611.34;5032896;28;20343;-66
2023/12/05 01:31:19;;;;;;;7.55;4.35;;;;;;;4.52;99.82;100616.34;5025700;28;20366;-65
2023/12/05 01:33:46;;;;;;;7.57;4.20;;;;;;;4.45;100.00;100602.81;5029067;28;20033;-66
2023/12/05 01:36:12;;;;;;;10.18;5.50;;;;;;;4.48;99.76;100594.72;5033121;28;20072;-66
2023/12/05 01:38:38;;;;;;;5.65;4.13;;;;;;;4.66;100.00;100603.16;5033175;28;20327;-65
2023/12/05 01:41:04;;;;;;;9.25;4.80;;;;;;;4.41;100.00;100596.09;5033639;28;20196;-66
2023/12/05 01:43:29;;;;;;;8.40;4.45;;;;;;;4.33;100.00;100590.50;5034065;28;20025;-66
2023/12/05 01:45:55;;;;;;;9.68;5.10;;;;;;;4.34;100.00;100587.78;5033911;28;20033;-64
2023/12/05 01:48:22;;;;;;;7.97;4.90;;;;;;;4.14;100.00;100586.44;5033181;28;20045;-64
2023/12/05 01:50:48;;;;;;;10.30;6.10;;;;;;;4.20;100.00;100576.53;5031486;28;20048;-66
2023/12/05 01:53:15;;;;;;;11.98;6.65;;;;;;;4.46;100.00;100581.72;5032980;28;20036;-66
2023/12/05 01:55:42;;;;;;;13.07;7.18;;;;;;;4.52;100.00;100577.00;5033060;28;20505;-66
2023/12/05 01:58:09;;;;;;;10.20;6.05;;;;;;;4.58;100.00;100580.06;5032843;28;20044;-66
2023/12/05 02:00:38;;;;;;;8.13;5.22;;;;;;;4.42;98.54;100576.78;5033158;28;20029;-66
2023/12/05 02:03:04;;;;;;;13.43;6.40;;;;;;;4.44;99.31;100573.13;5034043;28;20033;-64
2023/12/05 02:05:29;;;;;;;11.40;5.55;;;;;;;4.48;100.00;100571.97;5033191;28;20653;-66
2023/12/05 02:07:55;;;;;;;10.90;5.28;;;;;;;4.36;99.99;100569.34;5034584;28;20083;-63
2023/12/05 02:10:20;;;;;;;9.00;4.28;;;;;;;4.53;99.49;100561.16;5034310;28;20080;-65
2023/12/05 02:12:46;;;;;;;9.68;5.07;;;;;;;4.38;98.77;100565.66;5033799;28;20072;-65
2023/12/05 02:15:12;;;;;;;16.02;5.72;;;;;;;4.43;99.41;100565.34;5033760;28;20335;-64
2023/12/05 02:18:03;;;;;;;11.93;5.47;;;;;;;4.45;98.65;100580.03;5027684;28;20026;-66
2023/12/05 02:20:28;;;;;;;8.48;5.32;;;;;;;4.55;99.00;100572.41;5031648;28;20045;-66
2023/12/05 02:23:25;;;;;;;11.80;6.60;;;;;;;4.56;97.65;100568.00;5034226;28;20205;-64
2023/12/05 02:25:56;;;;;;;11.88;6.85;;;;;;;4.64;98.21;100560.44;5035649;28;20048;-66
2023/12/05 02:28:23;;;;;;;10.57;5.72;;;;;;;4.64;97.34;100553.41;5033622;28;20061;-66
2023/12/05 02:30:49;;;;;;;9.68;5.97;;;;;;;4.70;96.95;100557.41;5032929;28;20064;-63
2023/12/05 02:33:14;;;;;;;9.98;5.40;;;;;;;4.83;96.79;100563.50;5035988;28;20378;-64
2023/12/05 02:35:40;;;;;;;10.52;5.68;;;;;;;4.44;96.72;100553.94;5036031;28;20041;-64
2023/12/05 02:38:39;;;;;;;9.85;5.97;;;;;;;4.30;97.47;100544.38;5032798;28;20033;-63
2023/12/05 02:41:13;;;;;;;8.73;5.13;;;;;;;4.33;97.41;100556.44;5035126;28;20104;-65
2023/12/05 02:43:48;;;;;;;8.90;5.30;;;;;;;4.43;97.44;100555.72;5035947;28;20080;-64
2023/12/05 02:46:17;;;;;;;11.45;6.38;;;;;;;4.48;97.11;100553.63;5035732;28;20342;-64
2023/12/05 02:48:44;;;;;;;9.82;5.63;;;;;;;4.36;97.82;100546.56;5037358;28;20041;-63
2023/12/05 02:51:11;;;;;;;10.07;5.93;;;;;;;4.23;98.28;100550.13;5034357;28;20038;-63
2023/12/05 02:53:37;;;;;;;9.93;5.97;;;;;;;4.08;97.92;100549.31;5037213;28;20044;-66
2023/12/05 02:56:03;;;;;;;11.80;7.30;;;;;;;4.24;97.89;100554.41;5035718;28;20061;-66
2023/12/05 02:58:29;;;;;;;11.07;6.00;;;;;;;4.39;97.26;100554.22;5033729;28;20108;-65
2023/12/05 03:00:54;;;;;;;11.27;6.47;;;;;;;4.54;96.52;100547.13;5026163;28;20144;-64
2023/12/05 03:03:20;;;;;;;9.45;5.45;;;;;;;4.59;96.66;100533.69;5035512;28;20033;-66
2023/12/05 03:05:45;;;;;;;11.13;5.43;;;;;;;4.38;97.55;100528.94;5035306;28;20052;-66
2023/12/05 03:08:11;;;;;;;12.70;7.13;;;;;;;4.25;98.54;100530.72;5035674;28;20332;-64
2023/12/05 03:10:36;;;;;;;10.77;6.95;;;;;;;4.23;99.56;100523.91;5035538;28;20064;-65
2023/12/05 03:13:02;;;;;;;12.10;6.15;;;;;;;4.21;100.00;100523.16;5035211;28;20037;-65
2023/12/05 03:15:28;;;;;;;11.68;5.95;;;;;;;4.25;99.78;100527.25;5035313;28;20041;-63
2023/12/05 03:17:53;;;;;;;11.50;6.25;;;;;;;4.21;99.57;100524.00;5034988;28;20040;-66
2023/12/05 03:20:19;;;;;;;11.05;6.18;;;;;;;4.17;100.00;100517.28;5031782;28;20061;-63
2023/12/05 03:22:45;;;;;;;13.75;6.10;;;;;;;4.08;100.00;100507.38;5019945;28;20029;-66
2023/12/05 03:25:11;;;;;;;13.15;6.50;;;;;;;4.19;100.00;100499.69;5025008;28;20097;-63
2023/12/05 03:27:37;;;;;;;12.38;6.35;;;;;;;4.10;100.00;100508.13;5029446;28;20076;-63
2023/12/05 03:30:03;;;;;;;12.77;6.90;;;;;;;4.32;100.00;100515.41;5035190;28;20313;-63
2023/12/05 03:32:29;;;;;;;11.50;6.60;;;;;;;4.32;100.00;100521.50;5034586;28;20088;-67
2023/12/05 03:34:54;;;;;;;11.73;6.97;;;;;;;4.59;100.00;100524.03;5033825;28;20317;-64
2023/12/05 03:37:20;;;;;;;12.00;7.22;;;;;;;4.45;99.78;100518.88;5035008;28;20037;-66
2023/12/05 03:39:45;;;;;;;14.10;6.47;;;;;;;4.43;100.00;100520.78;5034884;28;20041;-66
2023/12/05 03:42:11;;;;;;;13.48;6.80;;;;;;;4.58;100.00;100529.38;5035058;28;20048;-66
2023/12/05 03:44:36;;;;;;;13.02;6.78;;;;;;;4.82;100.00;100535.56;5034444;28;20570;-66
2023/12/05 03:47:02;;;;;;;15.60;8.20;;;;;;;4.78;100.00;100537.56;5034127;28;20250;-65
2023/12/05 03:49:27;;;;;;;14.07;7.18;;;;;;;5.08;99.44;100537.22;5031793;28;20248;-64
2023/12/05 03:51:53;;;;;;;16.45;8.05;;;;;;;5.28;98.40;100546.34;5018293;28;20045;-66
2023/12/05 03:54:18;;;;;;;11.73;7.47;;;;;;;5.28;98.11;100541.09;5018660;28;20107;-66
2023/12/05 03:56:44;;;;;;;19.67;8.55;;;;;;;5.05;99.88;100531.34;5018655;28;20049;-66
2023/12/05 03:59:10;;;;;;;15.63;9.02;;;;;;;5.21;98.98;100541.63;5018566;28;20382;-63
2023/12/05 04:01:36;;;;;;;21.83;9.63;;;;;;;5.20;98.92;100535.53;5017490;28;20033;-64
2023/12/05 04:04:02;;;;;;;19.55;9.93;;;;;;;5.28;100.00;100532.38;5019817;28;20116;-66
2023/12/05 04:06:28;;;;;;;22.30;10.68;;;;;;;4.97;100.00;100534.50;5018106;28;20467;-65
2023/12/05 04:08:53;;;;;;;21.73;10.15;;;;;;;4.83;100.00;100529.38;5019079;28;20045;-64
2023/12/05 04:11:29;;;;;;;23.77;10.85;;;;;;;4.42;100.00;100535.66;5018864;28;20068;-66
2023/12/05 04:13:55;;;;;;;24.60;10.75;;;;;;;4.26;100.00;100531.56;5017471;28;20355;-63
2023/12/05 04:16:20;;;;;;;25.73;10.50;;;;;;;4.12;100.00;100532.44;5017796;28;20042;-66
2023/12/05 04:18:46;;;;;;;25.77;11.10;;;;;;;4.20;100.00;100526.72;5018180;28;20038;-66
2023/12/05 04:21:11;;;;;;;22.92;10.75;;;;;;;4.03;100.00;100520.78;5018791;28;20287;-66
2023/12/05 04:23:37;;;;;;;26.73;11.07;;;;;;;4.12;100.00;100522.81;5017518;28;20077;-64
2023/12/05 04:26:02;;;;;;;28.08;12.63;;;;;;;4.37;100.00;100523.81;5019279;28;20040;-64
2023/12/05 04:28:31;;;;;;;22.02;11.45;;;;;;;4.23;100.00;100521.28;5016911;28;20335;-64
2023/12/05 04:30:57;;;;;;;26.30;11.75;;;;;;;4.27;100.00;100520.97;5017915;28;20032;-66
2023/12/05 04:33:22;;;;;;;27.58;11.63;;;;;;;4.21;100.00;100520.53;5017493;28;20109;-63
2023/12/05 04:35:48;;;;;;;28.48;12.57;;;;;;;4.15;100.00;100513.91;5017331;28;20048;-66
2023/12/05 04:38:13;;;;;;;25.70;11.55;;;;;;;4.33;100.00;100510.06;5018279;28;20267;-66
2023/12/05 04:40:39;;;;;;;23.42;10.68;;;;;;;4.36;100.00;100515.09;5018648;28;20096;-66
2023/12/05 04:43:04;;;;;;;21.88;10.93;;;;;;;4.30;100.00;100512.06;5017439;28;20109;-66
2023/12/05 04:45:30;;;;;;;22.05;10.23;;;;;;;4.32;100.00;100504.94;5016578;28;20093;-65
2023/12/05 04:47:55;;;;;;;20.58;10.82;;;;;;;4.45;100.00;100513.66;5022075;28;20230;-64
2023/12/05 04:50:21;;;;;;;19.40;10.20;;;;;;;4.64;100.00;100516.69;5033613;28;20034;-66
2023/12/05 04:52:47;;;;;;;22.95;10.35;;;;;;;4.60;100.00;100514.38;5033712;28;20038;-64
2023/12/05 04:55:12;;;;;;;20.85;9.85;;;;;;;4.60;100.00;100509.13;5033085;28;20417;-64
2023/12/05 04:57:38;;;;;;;23.75;12.13;;;;;;;4.65;100.00;100517.53;5030328;28;20113;-65
2023/12/05 05:00:05;;;;;;;21.10;10.82;;;;;;;4.88;100.00;100522.03;5024321;28;20045;-66
2023/12/05 05:02:30;;;;;;;21.38;11.75;;;;;;;4.81;100.00;100520.78;5032338;28;20033;-66
2023/12/05 05:04:56;;;;;;;24.63;11.68;;;;;;;4.82;100.00;100523.28;5024494;28;20049;-66
2023/12/05 05:07:21;;;;;;;19.95;11.13;;;;;;;4.96;100.00;100518.88;5032863;28;20053;-66
2023/12/05 05:09:47;;;;;;;25.25;11.60;;;;;;;4.93;100.00;100517.28;5033177;28;20835;-65
2023/12/05 05:12:14;;;;;;;25.52;11.75;;;;;;;4.81;100.00;100510.28;5032829;28;20355;-63
2023/12/05 05:14:39;;;;;;;29.67;14.55;;;;;;;4.60;100.00;100502.09;5033120;28;20037;-63
2023/12/05 05:17:07;;;;;;;30.33;13.02;;;;;;;4.69;100.00;100508.50;5033345;28;20338;-64
2023/12/05 05:19:33;;;;;;;27.98;12.68;;;;;;;4.74;100.00;100502.00;5032798;28;20037;-66
2023/12/05 05:21:58;;;;;;;32.25;14.57;;;;;;;4.61;100.00;100503.78;5032106;28;20055;-66
2023/12/05 05:24:24;;;;;;;33.40;14.00;;;;;;;4.58;100.00;100504.00;5032895;28;20056;-66
2023/12/05 05:26:49;;;;;;;29.65;14.13;;;;;;;4.59;100.00;100499.59;5032868;28;20033;-63
2023/12/05 05:29:15;;;;;;;35.95;14.65;;;;;;;4.66;100.00;100487.72;5033074;28;20052;-66
2023/12/05 05:31:41;;;;;;;33.42;14.70;;;;;;;4.63;100.00;100495.81;5033369;28;20083;-66
2023/12/05 05:34:06;;;;;;;29.88;13.80;;;;;;;4.44;100.00;100497.06;5032975;28;20072;-66
2023/12/05 05:36:32;;;;;;;28.08;13.40;;;;;;;4.35;100.00;100499.47;5030627;28;20088;-63
2023/12/05 05:38:57;;;;;;;27.25;13.27;;;;;;;4.51;100.00;100488.78;5033441;28;20038;-63
2023/12/05 05:41:23;;;;;;;30.40;13.90;;;;;;;4.59;100.00;100482.06;5032719;28;20084;-64
2023/12/05 05:43:48;;;;;;;25.58;12.43;;;;;;;4.70;100.00;100476.91;5033199;28;20343;-64
2023/12/05 05:46:14;;;;;;;24.67;11.75;;;;;;;4.77;100.00;100482.56;5033080;28;20386;-63
2023/12/05 05:48:40;;;;;;;26.95;12.63;;;;;;;4.75;100.00;100482.69;5030582;28;20385;-65
2023/12/05 05:51:06;;;;;;;26.98;12.10;;;;;;;4.72;100.00;100480.28;5025864;28;20041;-64
2023/12/05 05:53:32;;;;;;;26.40;12.88;;;;;;;4.81;100.00;100476.16;5033866;28;20113;-64
2023/12/05 05:56:01;;;;;;;25.45;11.45;;;;;;;4.70;100.00;100474.28;5032232;28;20062;-63
2023/12/05 05:58:29;;;;;;;29.83;13.50;;;;;;;4.77;100.00;100472.06;5034149;28;20108;-64
2023/12/05 06:00:55;;;;;;;28.30;11.57;;;;;;;4.85;100.00;100461.03;5036730;28;20039;-64
2023/12/05 06:03:20;;;;;;;25.00;12.23;;;;;;;4.81;100.00;100482.25;5034161;28;20037;-66
2023/12/05 06:05:46;;;;;;;20.05;10.00;;;;;;;4.77;100.00;100474.69;5022819;28;20235;-66
2023/12/05 06:08:11;;;;;;;20.55;10.98;;;;;;;4.82;100.00;100475.22;5033296;28;20037;-66
2023/12/05 06:10:37;;;;;;;26.73;11.70;;;;;;;4.68;100.00;100467.47;5035247;28;20091;-64
2023/12/05 06:13:03;;;;;;;23.25;11.25;;;;;;;4.67;100.00;100481.53;5034968;28;20037;-63
2023/12/05 06:15:28;;;;;;;25.33;13.27;;;;;;;4.67;100.00;100471.03;5035279;28;20318;-64
2023/12/05 06:17:55;;;;;;;24.70;11.15;;;;;;;4.61;100.00;100468.84;5022027;28;20045;-66
2023/12/05 06:20:22;;;;;;;28.35;11.95;;;;;;;4.66;100.00;100474.63;5034637;28;20061;-66
2023/12/05 06:22:48;;;;;;;25.63;10.90;;;;;;;4.74;100.00;100474.91;5031501;28;20327;-64
2023/12/05 06:25:14;;;;;;;24.52;12.10;;;;;;;4.53;100.00;100465.91;5026479;28;20037;-66
2023/12/05 06:27:39;;;;;;;28.90;13.00;;;;;;;4.26;100.00;100468.66;5026274;28;20222;-64
2023/12/05 06:30:05;;;;;;;25.00;12.95;;;;;;;4.53;100.00;100472.00;5029720;28;20064;-66
2023/12/05 06:32:31;;;;;;;28.73;13.00;;;;;;;4.71;100.00;100478.59;5033226;28;20428;-65
2023/12/05 06:34:56;;;;;;;32.97;14.57;;;;;;;4.79;100.00;100488.56;5033065;28;20033;-65
2023/12/05 06:37:22;;;;;;;26.25;12.43;;;;;;;5.05;100.00;100486.72;5034648;28;20045;-66
2023/12/05 06:39:47;;;;;;;23.90;12.18;;;;;;;5.33;100.00;100491.72;5025556;28;20037;-64
2023/12/05 06:42:13;;;;;;;24.65;13.57;;;;;;;5.60;100.00;100501.16;5033890;28;20038;-64
2023/12/05 06:44:38;;;;;;;23.23;11.93;;;;;;;5.81;100.00;100498.75;5032092;28;20030;-64
2023/12/05 06:47:04;;;;;;;25.38;13.15;;;;;;;5.79;100.00;100501.50;5023647;28;20061;-66
2023/12/05 06:49:29;;;;;;;26.13;12.07;;;;;;;5.85;100.00;100505.47;5035752;28;20037;-64
2023/12/05 06:51:57;;;;;;;26.50;11.25;;;;;;;5.97;100.00;100502.78;5033625;28;20033;-64
2023/12/05 06:54:23;;;;;;;26.40;12.82;;;;;;;6.07;100.00;100489.78;5034844;28;20084;-66
2023/12/05 06:56:48;;;;;;;23.95;11.73;;;;;;;5.95;100.00;100486.28;5030924;28;20294;-64
2023/12/05 06:59:14;;;;;;;24.80;11.20;;;;;;;5.93;100.00;100490.81;5033860;28;20104;-66
2023/12/05 07:01:40;;;;;;;23.35;11.52;;;;;;;5.97;100.00;100479.13;5033347;28;20091;-64
2023/12/05 07:04:07;;;;;;;21.77;10.60;;;;;;;6.05;100.00;100492.53;5034181;28;20041;-66
2023/12/05 07:06:32;;;;;;;19.88;10.63;;;;;;;6.22;99.59;100488.63;5033646;28;20104;-65
2023/12/05 07:08:58;;;;;;;16.98;10.35;;;;;;;6.28;99.04;100482.09;5030507;28;20038;-66
2023/12/05 07:11:26;;;;;;;21.20;10.57;;;;;;;6.05;100.00;100489.91;5033684;28;20041;-66
2023/12/05 07:13:55;;;;;;;19.83;10.13;;;;;;;6.26;99.41;100482.22;5032431;28;20096;-66
2023/12/05 07:16:20;;;;;;;18.73;9.35;;;;;;;6.35;98.15;100501.72;5034501;28;20052;-64
2023/12/05 07:18:49;;;;;;;21.27;9.73;;;;;;;6.33;97.88;100498.38;5034028;28;20323;-66
2023/12/05 07:21:14;;;;;;;20.48;9.82;;;;;;;6.45;97.75;100489.53;5033380;28;20347;-66
2023/12/05 07:23:40;;;;;;;16.77;8.75;;;;;;;6.54;96.47;100488.84;5034136;28;20058;-66
2023/12/05 07:26:05;;;;;;;17.88;8.15;;;;;;;6.61;95.87;100483.94;5034014;28;20041;-66
2023/12/05 07:28:31;;;;;;;18.33;8.32;;;;;;;6.67;94.40;100489.56;5034641;28;20048;-64
2023/12/05 07:30:57;;;;;;;21.90;9.10;;;;;;;6.72;94.56;100494.47;5033691;28;20045;-66
2023/12/05 07:33:23;;;;;;;16.13;8.52;;;;;;;6.76;93.44;100476.66;5033763;28;20380;-66
2023/12/05 07:35:48;;;;;;;13.50;8.00;;;;;;;6.83;93.60;100488.38;5033536;28;20035;-66
2023/12/05 07:38:14;;;;;;;14.45;7.63;;;;;;;6.80;93.50;100484.19;5025697;28;20187;-64
2023/12/05 07:40:39;;;;;;;16.15;8.15;;;;;;;6.83;93.85;100483.09;5033163;28;20354;-63
2023/12/05 07:43:05;;;;;;;16.42;8.93;;;;;;;6.78;94.10;100487.91;5030989;28;20048;-66
2023/12/05 07:45:30;;;;;;;14.30;8.23;;;;;;;6.84;94.84;100483.00;5032814;28;20036;-64
2023/12/05 07:47:56;;;;;;;17.85;8.50;;;;;;;6.76;94.23;100479.28;5026176;28;20359;-64
2023/12/05 07:50:22;;;;;;;17.58;9.80;;;;;;;6.88;94.53;100479.16;5023587;28;20038;-66
2023/12/05 07:52:49;;;;;;;18.35;10.70;;;;;;;6.95;94.65;100466.34;5034256;28;20033;-65
2023/12/05 07:55:16;;;;;;;21.10;9.55;;;;;;;7.04;94.40;100469.09;5034236;28;20042;-66
2023/12/05 07:57:42;;;;;;;19.95;9.05;;;;;;;7.12;93.56;100459.75;5034415;28;20038;-64
2023/12/05 08:00:14;;;;;;;17.40;9.10;;;;;;;7.11;93.96;100456.28;5034557;28;20216;-64
2023/12/05 08:02:39;;;;;;;18.05;8.90;;;;;;;7.16;93.71;100456.75;5024568;28;20044;-63
2023/12/05 08:05:06;;;;;;;16.95;9.32;;;;;;;7.18;93.92;100456.63;5023464;28;20110;-64
2023/12/05 08:07:31;;;;;;;19.35;10.32;;;;;;;7.22;93.26;100450.13;5033909;28;20114;-64
2023/12/05 08:09:57;;;;;;;30.25;11.70;;;;;;;7.23;92.98;100449.19;5034234;28;20037;-64
2023/12/05 08:12:22;;;;;;;24.05;11.10;;;;;;;7.27;92.24;100443.53;5033575;28;20041;-65
2023/12/05 08:14:48;;;;;;;24.00;10.63;;;;;;;7.35;93.33;100443.78;5031891;28;20057;-63
2023/12/05 08:17:13;;;;;;;21.27;10.30;;;;;;;7.38;92.12;100440.06;5018340;28;20045;-66
2023/12/05 08:19:39;;;;;;;21.20;11.40;;;;;;;7.41;91.65;100439.81;5034119;28;20044;-64
2023/12/05 08:22:04;;;;;;;19.92;11.38;;;;;;;7.52;91.32;100445.06;5032848;28;20247;-66
2023/12/05 08:24:30;;;;;;;27.65;11.98;;;;;;;7.48;92.04;100445.44;5021843;28;20121;-66
2023/12/05 08:26:55;;;;;;;20.38;10.30;;;;;;;7.55;91.57;100439.53;5031265;28;20037;-64
2023/12/05 08:29:21;;;;;;;21.92;13.35;;;;;;;7.59;92.03;100448.84;5023984;28;20037;-66
2023/12/05 08:31:46;;;;;;;26.98;12.07;;;;;;;7.66;91.17;100439.47;5033527;28;20064;-66
2023/12/05 08:34:12;;;;;;;24.10;10.63;;;;;;;7.69;91.08;100425.22;5033102;28;20365;-64
2023/12/05 08:36:42;;;;;;;22.33;11.05;;;;;;;7.29;93.32;100431.13;5033543;28;20033;-63
2023/12/05 08:39:08;;;;;;;21.70;10.70;;;;;;;7.37;92.15;100427.84;5030477;28;20087;-63
2023/12/05 08:41:34;;;;;;;22.98;10.63;;;;;;;7.30;92.95;100421.41;5033901;28;20037;-67
2023/12/05 08:43:59;;;;;;;20.00;9.90;;;;;;;7.18;93.28;100414.47;5033633;28;20162;-63
2023/12/05 08:46:25;;;;;;;20.98;9.95;;;;;;;7.15;93.32;100414.72;5032125;28;20342;-64
2023/12/05 08:48:50;;;;;;;24.88;10.70;;;;;;;7.28;93.01;100418.03;5027049;28;20056;-64
2023/12/05 08:51:18;;;;;;;24.88;10.00;;;;;;;7.38;91.00;100410.25;5033343;28;20037;-65
2023/12/05 08:53:43;;;;;;;23.38;11.02;;;;;;;7.39;91.09;100415.41;5033588;28;20029;-64
2023/12/05 08:56:09;;;;;;;21.48;10.95;;;;;;;7.33;91.37;100408.00;5033574;28;20088;-64
2023/12/05 08:58:36;;;;;;;36.50;12.65;;;;;;;7.43;90.78;100410.72;5033751;28;20049;-66
2023/12/05 09:01:02;;;;;;;23.23;10.90;;;;;;;7.44;91.09;100410.59;5033774;28;20037;-66
2023/12/05 09:03:28;;;;;;;24.70;11.63;;;;;;;7.33;92.26;100400.94;5032982;28;20084;-64
2023/12/05 09:05:53;;;;;;;25.73;12.35;;;;;;;7.51;92.22;100400.38;5033551;28;20093;-66
2023/12/05 09:08:19;;;;;;;26.35;12.77;;;;;;;7.67;91.33;100392.88;5033806;28;20220;-64
2023/12/05 09:10:45;;;;;;;22.75;12.57;;;;;;;7.79;90.73;100404.19;5033040;28;20033;-67
2023/12/05 09:13:11;;;;;;;24.67;12.32;;;;;;;7.82;90.56;100394.22;5033268;28;20103;-66
2023/12/05 09:15:37;;;;;;;27.65;12.20;;;;;;;7.81;90.04;100391.72;5027779;28;20042;-66
2023/12/05 09:18:03;;;;;;;29.75;12.85;;;;;;;7.68;91.28;100382.19;5018254;28;20549;-66
2023/12/05 09:20:28;;;;;;;24.08;11.70;;;;;;;7.52;91.65;100383.59;5021970;28;20097;-64
2023/12/05 09:22:54;;;;;;;20.40;10.85;;;;;;;7.57;91.51;100381.44;5033885;28;20034;-63
2023/12/05 09:25:20;;;;;;;19.98;10.40;;;;;;;7.46;91.79;100373.56;5033703;28;20331;-64
2023/12/05 09:27:45;;;;;;;22.20;10.38;;;;;;;7.64;90.80;100364.97;5033702;28;20036;-64
2023/12/05 09:30:12;;;;;;;23.73;11.10;;;;;;;7.49;92.78;100357.50;5023012;28;20091;-66
2023/12/05 09:32:38;;;;;;;22.27;11.20;;;;;;;7.58;92.50;100351.47;5024031;28;20394;-66
2023/12/05 09:35:04;;;;;;;20.05;10.77;;;;;;;7.64;91.59;100358.88;5037369;28;20035;-66
2023/12/05 09:37:30;;;;;;;20.42;9.00;;;;;;;7.57;91.83;100353.28;5026569;28;20030;-66
2023/12/05 09:39:56;;;;;;;14.43;7.57;;;;;;;7.47;91.54;100348.91;5036838;28;20067;-65
2023/12/05 09:42:25;;;;;;;16.08;7.68;;;;;;;7.15;94.39;100349.72;5037102;28;20037;-65
2023/12/05 09:44:52;;;;;;;14.10;7.40;;;;;;;7.10;94.93;100333.47;5035712;28;20037;-66
2023/12/05 09:47:21;;;;;;;18.92;8.13;;;;;;;7.21;93.96;100333.41;5034678;28;20044;-64
2023/12/05 09:49:47;;;;;;;15.75;7.97;;;;;;;7.19;95.27;100326.59;5035920;28;20111;-64
2023/12/05 09:52:14;;;;;;;18.75;8.20;;;;;;;7.34;94.19;100328.84;5035896;28;20392;-66
2023/12/05 09:54:44;;;;;;;19.02;9.35;;;;;;;7.33;94.41;100323.69;5035661;28;20034;-64
2023/12/05 09:57:13;;;;;;;16.00;9.18;;;;;;;7.08;95.27;100316.94;5036162;28;20026;-64
2023/12/05 09:59:39;;;;;;;18.05;8.50;;;;;;;6.85;96.37;100318.81;5036297;28;20287;-64
2023/12/05 10:02:05;;;;;;;14.77;8.00;;;;;;;6.92;96.89;100313.91;5036716;28;20026;-66
2023/12/05 10:04:40;;;;;;;13.68;6.65;;;;;;;7.11;95.47;100302.69;5033912;28;20041;-65
2023/12/05 10:07:06;;;;;;;13.27;6.20;;;;;;;7.02;94.87;100296.38;5036993;28;20083;-65
2023/12/05 10:09:32;;;;;;;15.65;8.57;;;;;;;7.06;95.02;100284.63;5036851;28;20037;-66
2023/12/05 10:11:58;;;;;;;15.63;8.48;;;;;;;7.10;94.97;100287.84;5036313;28;20064;-64
2023/12/05 10:14:24;;;;;;;15.43;8.02;;;;;;;7.02;95.34;100272.69;5032213;28;20034;-64
2023/12/05 10:16:50;;;;;;;16.08;7.63;;;;;;;7.00;95.89;100271.97;5035048;28;20037;-65
2023/12/05 10:19:16;;;;;;;13.48;7.65;;;;;;;6.76;96.29;100253.75;5035298;28;20060;-66
2023/12/05 10:21:44;;;;;;;13.57;6.47;;;;;;;6.45;97.52;100257.22;5026392;28;20029;-64
2023/12/05 10:24:10;;;;;;;11.27;6.68;;;;;;;6.46;97.83;100258.88;5035262;28;20037;-63
2023/12/05 10:26:46;;;;;;;15.10;7.20;;;;;;;6.47;99.34;100255.28;5035049;28;20033;-64
2023/12/05 10:29:12;;;;;;;17.10;7.28;;;;;;;6.84;98.24;100258.41;5035140;28;20034;-63
2023/12/05 10:31:38;;;;;;;12.27;7.20;;;;;;;6.90;96.47;100250.84;5035435;28;20032;-65
2023/12/05 10:34:07;;;;;;;13.30;6.78;;;;;;;7.00;94.15;100245.66;5035166;28;20056;-64
2023/12/05 10:36:32;;;;;;;50.55;19.50;;;;;;;7.13;93.96;100243.66;5034849;28;20068;-64
2023/12/05 10:38:58;;;;;;;15.30;8.27;;;;;;;7.31;93.89;100241.31;5035284;28;20320;-64
2023/12/05 10:41:25;;;;;;;17.15;8.18;;;;;;;7.54;92.61;100240.22;5032055;28;20105;-66
2023/12/05 10:43:55;;;;;;;15.10;7.47;;;;;;;7.68;91.36;100231.97;5035529;28;20330;-64
2023/12/05 10:46:27;;;;;;;14.18;8.18;;;;;;;7.79;90.96;100235.47;5030463;28;20030;-64
2023/12/05 10:48:54;;;;;;;18.38;9.15;;;;;;;7.77;90.40;100240.03;5030765;28;20116;-66
2023/12/05 10:51:21;;;;;;;15.48;8.05;;;;;;;7.90;90.30;100238.84;5026844;28;20037;-64
2023/12/05 10:53:46;;;;;;;14.05;7.70;;;;;;;8.00;90.12;100241.53;5032046;28;20037;-65
2023/12/05 10:56:16;;;;;;;25.00;11.20;;;;;;;7.91;90.41;100229.97;5034369;28;20052;-66
2023/12/05 10:58:42;;;;;;;27.65;12.38;;;;;;;7.67;92.45;100219.75;5035087;28;20397;-66
2023/12/05 11:01:12;;;;;;;19.55;9.80;;;;;;;7.54;92.93;100213.03;5034887;28;20039;-64
2023/12/05 11:03:39;;;;;;;23.85;12.23;;;;;;;7.68;93.43;100212.69;5034644;28;20112;-66
2023/12/05 11:06:06;;;;;;;27.75;13.68;;;;;;;7.60;94.05;100207.22;5034362;28;20044;-64
2023/12/05 11:08:33;;;;;;;25.17;12.82;;;;;;;7.71;92.92;100203.66;5034911;28;20343;-63
2023/12/05 11:11:02;;;;;;;24.88;12.02;;;;;;;7.48;92.64;100189.84;5034376;28;20037;-65
2023/12/05 11:13:33;;;;;;;24.83;12.73;;;;;;;7.20;94.81;100188.69;5031218;28;20354;-64
2023/12/05 11:16:17;;;;;;;31.73;16.25;;;;;;;7.10;97.03;100193.06;5035516;28;20109;-66